This is the latest recevied weather packets stored in our database for station/object PY2RMF-10. If no packets are shown the sender has not sent any weather packets the latest 10 day(s).
| Time | Temp. | Humidity | Pressure | Rain* | Wind** | Luminosity | Snow |
|---|---|---|---|---|---|---|---|
| 1777309614 | 31.11° C | 44% | 1000 hPa | - | - | - | - |
| 1777307813 | 30.56° C | 44% | 1000 hPa | - | - | - | - |
| 1777306013 | 32.22° C | 41% | 1001 hPa | - | - | - | - |
| 1777304213 | 31.67° C | 41% | 1001 hPa | - | - | - | - |
| 1777302413 | 32.22° C | 45% | 1001 hPa | - | - | - | - |
| 1777300613 | 30.56° C | 52% | 1001 hPa | - | - | - | - |
| 1777298814 | 28.89° C | 58% | 1002 hPa | - | - | - | - |
| 1777297014 | 28.89° C | 58% | 1003 hPa | - | - | - | - |
| 1777295213 | 28.33° C | 58% | 1003 hPa | - | - | - | - |
| 1777293413 | 26.67° C | 71% | 1003 hPa | - | - | - | - |
| 1777291613 | 25° C | 72% | 1003 hPa | - | - | - | - |
| 1777288014 | 24.44° C | 68% | 1002 hPa | - | - | - | - |
| 1777286213 | 23.33° C | 76% | 1002 hPa | - | - | - | - |
| 1777284413 | 22.78° C | 87% | 1002 hPa | - | - | - | - |
| 1777282613 | 21.67° C | 92% | 1001 hPa | - | - | - | - |
| 1777280813 | 22.22° C | 90% | 1001 hPa | - | - | - | - |
| 1777279014 | 22.22° C | 88% | 1001 hPa | - | - | - | - |
| 1777277214 | 22.78° C | 84% | 1000 hPa | - | - | - | - |
| 1777275413 | 22.78° C | 81% | 1000 hPa | - | - | - | - |
| 1777273613 | 22.78° C | 82% | 1000 hPa | - | - | - | - |
| 1777271813 | 22.78° C | 84% | 1000 hPa | - | - | - | - |
| 1777270013 | 22.78° C | 86% | 1000 hPa | - | - | - | - |
| 1777268213 | 23.33° C | 81% | 1000 hPa | - | - | - | - |
| 1777266414 | 23.33° C | 79% | 1000 hPa | - | - | - | - |
| 1777264614 | 23.89° C | 77% | 1000 hPa | - | - | - | - |
* Rain since midnight (hover to see other rain measurements)
** Current wind speed in m/s (hover to see current wind gust speed)